CheckWX is a tool to help pilots better visualize weather data.  It is not intended as a substitute for an official pre-flight weather briefing.

22:48:45 UTC

KMSP METAR
Minneapolis-St Paul International / Wold-Chamberlain Airport
Minneapolis, Minnesota, USA
Current

56 mins ago

KMSP 262153Z 30007KT 10SM SCT043 BKN140 BKN250 27/19 A2978 RMK AO2 SLP080 TCU DSNT NE-S T02720194
Observed
May-26 @ 21:53 UTC
Wind
  • 300° at 7 KTS
Visibility
Flight Rules
VFR
Cloud Levels
  • Scattered at 4,300' AGL
  • Broken at 14,000' AGL
  • Broken at 25,000' AGL
Temperature
27°C / 81°F
Dewpoint
19°C / 66°F
Humidity
62%
Altimeter
29.78" Hg
Pressure
1008.42 hPa
Previous

2 hours ago

KMSP 262053Z 24006KT 10SM BKN036 BKN140 BKN250 26/18 A2979 RMK AO2 LTG DSNT E SLP085 CB DSNT E T02610183 56016
Observed
May-26 @ 20:53 UTC
Wind
  • 240° at 6 KTS
Visibility
Flight Rules
VFR
Cloud Levels
  • Broken at 3,600' AGL
  • Broken at 14,000' AGL
  • Broken at 25,000' AGL
Temperature
26°C / 79°F
Dewpoint
18°C / 64°F
Humidity
61%
Altimeter
29.79" Hg
Pressure
1008.82 hPa
Previous

3 hours ago

KMSP 261953Z 21004KT 10SM BKN034 BKN055 BKN140 BKN250 26/19 A2981 RMK AO2 SLP088 CB DSNT SE T02610189
Observed
May-26 @ 19:53 UTC
Wind
  • 210° at 4 KTS
Visibility
Flight Rules
VFR
Cloud Levels
  • Broken at 3,400' AGL
  • Broken at 5,500' AGL
  • Broken at 14,000' AGL
  • Broken at 25,000' AGL
Temperature
26°C / 79°F
Dewpoint
19°C / 66°F
Humidity
65%
Altimeter
29.81" Hg
Pressure
1009.52 hPa